sensor_id;sensor_type;location;lat;lon;timestamp;pressure;altitude;pressure_sealevel;temperature;humidity
19884;BME280;10104;50.732;10.174;2022-12-07T00:01:33;97812.91;;;3.75;97.46
19884;BME280;10104;50.732;10.174;2022-12-07T00:03:57;97815.91;;;3.98;96.36
19884;BME280;10104;50.732;10.174;2022-12-07T00:06:21;97819.28;;;4.08;96.13
19884;BME280;10104;50.732;10.174;2022-12-07T00:08:44;97809.94;;;4.23;95.70
19884;BME280;10104;50.732;10.174;2022-12-07T00:11:07;97801.56;;;4.37;94.89
19884;BME280;10104;50.732;10.174;2022-12-07T00:13:31;97807.06;;;4.52;94.28
19884;BME280;10104;50.732;10.174;2022-12-07T00:15:53;97804.78;;;4.57;94.21
19884;BME280;10104;50.732;10.174;2022-12-07T00:18:14;97804.50;;;4.60;93.69
19884;BME280;10104;50.732;10.174;2022-12-07T00:20:36;97796.72;;;4.68;93.33
19884;BME280;10104;50.732;10.174;2022-12-07T00:22:57;97794.81;;;4.78;93.41
19884;BME280;10104;50.732;10.174;2022-12-07T00:25:19;97792.84;;;4.80;92.46
19884;BME280;10104;50.732;10.174;2022-12-07T00:27:40;97779.88;;;4.79;92.56
19884;BME280;10104;50.732;10.174;2022-12-07T00:30:02;97786.72;;;4.72;91.94
19884;BME280;10104;50.732;10.174;2022-12-07T00:32:24;97787.91;;;4.77;92.35
19884;BME280;10104;50.732;10.174;2022-12-07T00:34:46;97782.25;;;4.64;92.29
19884;BME280;10104;50.732;10.174;2022-12-07T00:37:07;97778.66;;;4.65;93.49
19884;BME280;10104;50.732;10.174;2022-12-07T00:39:29;97779.81;;;4.71;92.72
19884;BME280;10104;50.732;10.174;2022-12-07T00:41:50;97768.78;;;4.85;92.37
19884;BME280;10104;50.732;10.174;2022-12-07T00:44:12;97761.06;;;4.83;91.72
19884;BME280;10104;50.732;10.174;2022-12-07T00:46:33;97759.97;;;4.94;90.95
19884;BME280;10104;50.732;10.174;2022-12-07T00:48:55;97765.84;;;4.62;91.16
19884;BME280;10104;50.732;10.174;2022-12-07T00:51:18;97759.97;;;4.42;92.97
19884;BME280;10104;50.732;10.174;2022-12-07T00:53:40;97759.44;;;4.39;93.93
19884;BME280;10104;50.732;10.174;2022-12-07T00:56:11;97764.97;;;4.54;93.64
19884;BME280;10104;50.732;10.174;2022-12-07T00:58:33;97754.88;;;4.41;93.51
19884;BME280;10104;50.732;10.174;2022-12-07T01:00:59;97753.94;;;4.24;93.86
19884;BME280;10104;50.732;10.174;2022-12-07T01:03:21;97753.91;;;4.42;93.61
19884;BME280;10104;50.732;10.174;2022-12-07T01:05:51;97749.34;;;4.26;94.28
19884;BME280;10104;50.732;10.174;2022-12-07T01:08:13;97748.47;;;4.18;93.86
19884;BME280;10104;50.732;10.174;2022-12-07T01:10:34;97743.84;;;4.12;94.39
19884;BME280;10104;50.732;10.174;2022-12-07T01:12:56;97743.09;;;3.84;94.91
19884;BME280;10104;50.732;10.174;2022-12-07T01:15:18;97749.09;;;3.94;94.50
19884;BME280;10104;50.732;10.174;2022-12-07T01:17:39;97743.63;;;3.87;95.82
19884;BME280;10104;50.732;10.174;2022-12-07T01:20:01;97740.19;;;3.87;96.54
19884;BME280;10104;50.732;10.174;2022-12-07T01:22:23;97738.16;;;3.98;94.25
19884;BME280;10104;50.732;10.174;2022-12-07T01:24:45;97739.81;;;3.82;95.53
19884;BME280;10104;50.732;10.174;2022-12-07T01:27:07;97740.25;;;3.77;96.62
19884;BME280;10104;50.732;10.174;2022-12-07T01:29:29;97744.97;;;3.74;97.13
19884;BME280;10104;50.732;10.174;2022-12-07T01:31:50;97739.50;;;3.67;97.48
19884;BME280;10104;50.732;10.174;2022-12-07T01:34:12;97746.78;;;3.46;99.89
19884;BME280;10104;50.732;10.174;2022-12-07T01:36:35;97747.75;;;3.27;100.00
19884;BME280;10104;50.732;10.174;2022-12-07T01:38:59;97750.03;;;3.12;100.00
19884;BME280;10104;50.732;10.174;2022-12-07T01:41:23;97742.31;;;3.11;100.00
19884;BME280;10104;50.732;10.174;2022-12-07T01:44:07;97742.69;;;2.89;100.00
19884;BME280;10104;50.732;10.174;2022-12-07T01:46:29;97741.31;;;2.84;100.00
19884;BME280;10104;50.732;10.174;2022-12-07T01:48:51;97736.97;;;3.03;100.00
19884;BME280;10104;50.732;10.174;2022-12-07T01:51:13;97737.84;;;2.94;100.00
19884;BME280;10104;50.732;10.174;2022-12-07T01:53:38;97732.50;;;2.95;100.00
19884;BME280;10104;50.732;10.174;2022-12-07T01:56:01;97735.00;;;2.87;100.00
19884;BME280;10104;50.732;10.174;2022-12-07T01:58:23;97728.56;;;2.81;100.00
19884;BME280;10104;50.732;10.174;2022-12-07T02:00:45;97729.72;;;2.97;100.00
19884;BME280;10104;50.732;10.174;2022-12-07T02:03:15;97729.06;;;2.85;100.00
19884;BME280;10104;50.732;10.174;2022-12-07T02:05:41;97733.22;;;2.88;100.00
19884;BME280;10104;50.732;10.174;2022-12-07T02:08:03;97732.63;;;2.94;100.00
19884;BME280;10104;50.732;10.174;2022-12-07T02:10:27;97727.50;;;3.02;100.00
19884;BME280;10104;50.732;10.174;2022-12-07T02:13:38;97728.72;;;3.07;100.00
19884;BME280;10104;50.732;10.174;2022-12-07T02:18:27;97724.34;;;2.98;100.00
19884;BME280;10104;50.732;10.174;2022-12-07T02:21:07;97717.38;;;2.89;100.00
19884;BME280;10104;50.732;10.174;2022-12-07T02:23:41;97717.06;;;3.02;100.00
19884;BME280;10104;50.732;10.174;2022-12-07T02:28:36;97718.91;;;3.09;100.00
19884;BME280;10104;50.732;10.174;2022-12-07T02:31:03;97719.09;;;3.08;100.00
19884;BME280;10104;50.732;10.174;2022-12-07T02:33:36;97719.59;;;3.11;100.00
19884;BME280;10104;50.732;10.174;2022-12-07T02:36:09;97720.28;;;3.13;100.00
19884;BME280;10104;50.732;10.174;2022-12-07T02:38:38;97716.31;;;3.09;100.00
19884;BME280;10104;50.732;10.174;2022-12-07T02:41:19;97712.47;;;3.04;100.00
19884;BME280;10104;50.732;10.174;2022-12-07T02:43:51;97714.13;;;3.05;100.00
19884;BME280;10104;50.732;10.174;2022-12-07T02:46:17;97713.75;;;3.00;100.00
19884;BME280;10104;50.732;10.174;2022-12-07T02:48:42;97709.88;;;3.04;100.00
19884;BME280;10104;50.732;10.174;2022-12-07T02:51:04;97701.75;;;3.07;100.00
19884;BME280;10104;50.732;10.174;2022-12-07T02:53:34;97709.34;;;3.00;100.00
19884;BME280;10104;50.732;10.174;2022-12-07T02:55:56;97712.66;;;3.02;100.00
19884;BME280;10104;50.732;10.174;2022-12-07T02:58:28;97704.94;;;3.01;100.00
19884;BME280;10104;50.732;10.174;2022-12-07T03:01:11;97707.41;;;3.02;100.00
19884;BME280;10104;50.732;10.174;2022-12-07T03:03:37;97704.94;;;3.01;100.00
19884;BME280;10104;50.732;10.174;2022-12-07T03:06:20;97710.25;;;3.09;100.00
19884;BME280;10104;50.732;10.174;2022-12-07T03:08:50;97704.34;;;3.07;100.00
19884;BME280;10104;50.732;10.174;2022-12-07T03:11:29;97709.63;;;2.97;100.00
19884;BME280;10104;50.732;10.174;2022-12-07T03:13:59;97699.97;;;2.98;100.00
19884;BME280;10104;50.732;10.174;2022-12-07T03:16:52;97698.75;;;3.02;100.00
19884;BME280;10104;50.732;10.174;2022-12-07T03:19:19;97694.69;;;2.90;100.00
19884;BME280;10104;50.732;10.174;2022-12-07T03:22:00;97688.91;;;2.86;100.00
19884;BME280;10104;50.732;10.174;2022-12-07T03:24:46;97689.63;;;2.78;100.00
19884;BME280;10104;50.732;10.174;2022-12-07T03:27:22;97689.34;;;2.81;100.00
19884;BME280;10104;50.732;10.174;2022-12-07T03:29:52;97681.34;;;2.83;100.00
19884;BME280;10104;50.732;10.174;2022-12-07T03:32:32;97678.19;;;2.79;100.00
19884;BME280;10104;50.732;10.174;2022-12-07T03:40:11;97673.09;;;2.78;100.00
19884;BME280;10104;50.732;10.174;2022-12-07T03:42:34;97670.34;;;2.79;100.00
19884;BME280;10104;50.732;10.174;2022-12-07T03:44:56;97679.25;;;2.87;100.00
19884;BME280;10104;50.732;10.174;2022-12-07T03:47:34;97675.38;;;2.91;100.00
19884;BME280;10104;50.732;10.174;2022-12-07T03:50:05;97683.38;;;2.89;100.00
19884;BME280;10104;50.732;10.174;2022-12-07T03:52:39;97679.13;;;2.88;100.00
19884;BME280;10104;50.732;10.174;2022-12-07T03:55:26;97671.41;;;2.87;100.00
19884;BME280;10104;50.732;10.174;2022-12-07T03:57:51;97675.25;;;2.92;100.00
19884;BME280;10104;50.732;10.174;2022-12-07T04:00:15;97675.34;;;3.00;100.00
19884;BME280;10104;50.732;10.174;2022-12-07T04:02:36;97674.53;;;3.00;100.00
19884;BME280;10104;50.732;10.174;2022-12-07T04:04:58;97677.28;;;2.98;100.00
19884;BME280;10104;50.732;10.174;2022-12-07T04:07:19;97681.53;;;2.99;100.00
19884;BME280;10104;50.732;10.174;2022-12-07T04:09:41;97685.75;;;3.10;100.00
19884;BME280;10104;50.732;10.174;2022-12-07T04:12:02;97678.19;;;3.07;100.00
19884;BME280;10104;50.732;10.174;2022-12-07T04:14:24;97682.84;;;3.13;100.00
19884;BME280;10104;50.732;10.174;2022-12-07T04:19:12;97683.50;;;3.15;100.00
19884;BME280;10104;50.732;10.174;2022-12-07T04:21:33;97683.94;;;3.10;100.00
19884;BME280;10104;50.732;10.174;2022-12-07T04:23:55;97681.63;;;3.07;100.00
19884;BME280;10104;50.732;10.174;2022-12-07T04:26:16;97681.19;;;3.12;100.00
19884;BME280;10104;50.732;10.174;2022-12-07T04:28:38;97680.00;;;3.06;100.00
19884;BME280;10104;50.732;10.174;2022-12-07T04:30:59;97674.03;;;3.14;100.00
19884;BME280;10104;50.732;10.174;2022-12-07T04:33:21;97678.28;;;3.15;100.00
19884;BME280;10104;50.732;10.174;2022-12-07T04:35:42;97665.59;;;3.20;100.00
19884;BME280;10104;50.732;10.174;2022-12-07T04:38:04;97659.69;;;3.18;100.00
19884;BME280;10104;50.732;10.174;2022-12-07T04:40:25;97677.63;;;3.13;100.00
19884;BME280;10104;50.732;10.174;2022-12-07T04:42:47;97668.28;;;3.28;100.00
19884;BME280;10104;50.732;10.174;2022-12-07T04:45:09;97671.06;;;3.27;100.00
19884;BME280;10104;50.732;10.174;2022-12-07T04:47:30;97672.75;;;3.18;100.00
19884;BME280;10104;50.732;10.174;2022-12-07T04:49:52;97665.97;;;3.25;100.00
19884;BME280;10104;50.732;10.174;2022-12-07T04:52:13;97665.84;;;3.27;100.00
19884;BME280;10104;50.732;10.174;2022-12-07T04:54:35;97658.63;;;3.29;100.00
19884;BME280;10104;50.732;10.174;2022-12-07T04:56:56;97662.22;;;3.28;100.00
19884;BME280;10104;50.732;10.174;2022-12-07T04:59:18;97658.34;;;3.32;100.00
19884;BME280;10104;50.732;10.174;2022-12-07T05:01:39;97654.22;;;3.29;100.00
19884;BME280;10104;50.732;10.174;2022-12-07T05:04:02;97657.31;;;3.24;100.00
19884;BME280;10104;50.732;10.174;2022-12-07T05:06:23;97658.81;;;3.27;100.00
19884;BME280;10104;50.732;10.174;2022-12-07T05:08:45;97663.97;;;3.37;100.00
19884;BME280;10104;50.732;10.174;2022-12-07T05:11:07;97662.84;;;3.39;100.00
19884;BME280;10104;50.732;10.174;2022-12-07T05:13:29;97657.69;;;3.30;100.00
19884;BME280;10104;50.732;10.174;2022-12-07T05:15:50;97660.38;;;3.38;100.00
19884;BME280;10104;50.732;10.174;2022-12-07T05:18:12;97663.00;;;3.38;100.00
19884;BME280;10104;50.732;10.174;2022-12-07T05:20:33;97660.06;;;3.41;100.00
19884;BME280;10104;50.732;10.174;2022-12-07T05:23:02;97662.69;;;3.41;100.00
19884;BME280;10104;50.732;10.174;2022-12-07T05:25:24;97664.34;;;3.42;100.00
19884;BME280;10104;50.732;10.174;2022-12-07T05:27:45;97660.53;;;3.36;100.00
19884;BME280;10104;50.732;10.174;2022-12-07T05:30:07;97664.09;;;3.35;100.00
19884;BME280;10104;50.732;10.174;2022-12-07T05:32:29;97669.78;;;3.31;100.00
19884;BME280;10104;50.732;10.174;2022-12-07T05:34:50;97666.66;;;3.27;100.00
19884;BME280;10104;50.732;10.174;2022-12-07T05:37:12;97670.75;;;3.30;100.00
19884;BME280;10104;50.732;10.174;2022-12-07T05:39:33;97668.28;;;3.28;100.00
19884;BME280;10104;50.732;10.174;2022-12-07T05:41:55;97664.31;;;3.24;100.00
19884;BME280;10104;50.732;10.174;2022-12-07T05:44:35;97671.22;;;3.25;100.00
19884;BME280;10104;50.732;10.174;2022-12-07T05:46:56;97673.50;;;3.28;100.00
19884;BME280;10104;50.732;10.174;2022-12-07T05:49:18;97666.50;;;3.29;100.00
19884;BME280;10104;50.732;10.174;2022-12-07T05:51:40;97662.28;;;3.18;100.00
19884;BME280;10104;50.732;10.174;2022-12-07T05:54:02;97672.53;;;3.11;100.00
19884;BME280;10104;50.732;10.174;2022-12-07T05:56:24;97671.13;;;3.17;100.00
19884;BME280;10104;50.732;10.174;2022-12-07T05:58:45;97670.25;;;3.26;100.00
19884;BME280;10104;50.732;10.174;2022-12-07T06:01:25;97662.97;;;3.20;100.00
19884;BME280;10104;50.732;10.174;2022-12-07T06:03:46;97667.31;;;3.29;100.00
19884;BME280;10104;50.732;10.174;2022-12-07T06:06:08;97673.97;;;3.23;100.00
19884;BME280;10104;50.732;10.174;2022-12-07T06:08:29;97667.06;;;3.22;100.00
19884;BME280;10104;50.732;10.174;2022-12-07T06:10:51;97669.47;;;3.16;100.00
19884;BME280;10104;50.732;10.174;2022-12-07T06:13:32;97664.84;;;3.28;100.00
19884;BME280;10104;50.732;10.174;2022-12-07T06:15:54;97665.97;;;3.25;100.00
19884;BME280;10104;50.732;10.174;2022-12-07T06:18:15;97668.97;;;3.30;100.00
19884;BME280;10104;50.732;10.174;2022-12-07T06:20:37;97671.25;;;3.15;100.00
19884;BME280;10104;50.732;10.174;2022-12-07T06:22:58;97675.91;;;3.21;100.00
19884;BME280;10104;50.732;10.174;2022-12-07T06:25:20;97676.06;;;3.20;100.00
19884;BME280;10104;50.732;10.174;2022-12-07T06:27:41;97670.25;;;3.26;100.00
19884;BME280;10104;50.732;10.174;2022-12-07T06:30:03;97668.50;;;3.35;100.00
19884;BME280;10104;50.732;10.174;2022-12-07T06:32:27;97666.22;;;3.32;100.00
19884;BME280;10104;50.732;10.174;2022-12-07T06:34:49;97675.84;;;3.31;100.00
19884;BME280;10104;50.732;10.174;2022-12-07T06:37:10;97673.75;;;3.35;100.00
19884;BME280;10104;50.732;10.174;2022-12-07T06:39:32;97675.13;;;3.39;100.00
19884;BME280;10104;50.732;10.174;2022-12-07T06:41:54;97668.38;;;3.54;100.00
19884;BME280;10104;50.732;10.174;2022-12-07T06:44:15;97683.47;;;3.42;100.00
19884;BME280;10104;50.732;10.174;2022-12-07T06:46:37;97684.38;;;3.33;100.00
19884;BME280;10104;50.732;10.174;2022-12-07T06:48:58;97674.06;;;3.32;100.00
19884;BME280;10104;50.732;10.174;2022-12-07T06:51:20;97676.22;;;3.36;100.00
19884;BME280;10104;50.732;10.174;2022-12-07T06:53:41;97687.00;;;3.33;100.00
19884;BME280;10104;50.732;10.174;2022-12-07T06:56:04;97691.16;;;3.26;100.00
19884;BME280;10104;50.732;10.174;2022-12-07T06:58:25;97694.84;;;3.33;100.00
19884;BME280;10104;50.732;10.174;2022-12-07T07:00:48;97698.09;;;3.17;100.00
19884;BME280;10104;50.732;10.174;2022-12-07T07:03:11;97683.50;;;3.15;100.00
19884;BME280;10104;50.732;10.174;2022-12-07T07:05:33;97686.94;;;3.15;100.00
19884;BME280;10104;50.732;10.174;2022-12-07T07:07:54;97676.94;;;3.11;100.00
19884;BME280;10104;50.732;10.174;2022-12-07T07:10:36;97685.53;;;3.21;100.00
19884;BME280;10104;50.732;10.174;2022-12-07T07:12:57;97678.22;;;3.24;100.00
19884;BME280;10104;50.732;10.174;2022-12-07T07:15:19;97670.91;;;3.28;100.00
19884;BME280;10104;50.732;10.174;2022-12-07T07:17:40;97679.16;;;3.33;100.00
19884;BME280;10104;50.732;10.174;2022-12-07T07:20:02;97689.22;;;3.28;100.00
19884;BME280;10104;50.732;10.174;2022-12-07T07:22:24;97682.41;;;3.35;100.00
19884;BME280;10104;50.732;10.174;2022-12-07T07:24:45;97686.81;;;3.35;100.00
19884;BME280;10104;50.732;10.174;2022-12-07T07:27:07;97688.47;;;3.36;100.00
19884;BME280;10104;50.732;10.174;2022-12-07T07:29:28;97693.34;;;3.31;100.00
19884;BME280;10104;50.732;10.174;2022-12-07T07:31:50;97704.19;;;3.36;100.00
19884;BME280;10104;50.732;10.174;2022-12-07T07:34:11;97703.50;;;3.34;100.00
19884;BME280;10104;50.732;10.174;2022-12-07T07:36:33;97701.41;;;3.37;100.00
19884;BME280;10104;50.732;10.174;2022-12-07T07:38:54;97705.13;;;3.35;100.00
19884;BME280;10104;50.732;10.174;2022-12-07T07:41:16;97701.03;;;3.32;100.00
19884;BME280;10104;50.732;10.174;2022-12-07T07:43:37;97694.31;;;3.30;100.00
19884;BME280;10104;50.732;10.174;2022-12-07T07:45:59;97692.75;;;3.37;100.00
19884;BME280;10104;50.732;10.174;2022-12-07T07:48:20;97695.66;;;3.34;100.00
19884;BME280;10104;50.732;10.174;2022-12-07T07:50:43;97699.25;;;3.33;100.00
19884;BME280;10104;50.732;10.174;2022-12-07T07:53:05;97694.09;;;3.41;100.00
19884;BME280;10104;50.732;10.174;2022-12-07T07:55:26;97704.50;;;3.50;100.00
19884;BME280;10104;50.732;10.174;2022-12-07T07:57:48;97698.69;;;3.56;100.00
19884;BME280;10104;50.732;10.174;2022-12-07T08:00:15;97693.50;;;3.64;100.00
19884;BME280;10104;50.732;10.174;2022-12-07T08:02:37;97688.44;;;3.63;100.00
19884;BME280;10104;50.732;10.174;2022-12-07T08:04:59;97693.44;;;3.74;100.00
19884;BME280;10104;50.732;10.174;2022-12-07T08:07:21;97698.50;;;3.93;100.00
19884;BME280;10104;50.732;10.174;2022-12-07T08:09:42;97696.34;;;3.89;100.00
19884;BME280;10104;50.732;10.174;2022-12-07T08:12:04;97704.00;;;3.82;100.00
19884;BME280;10104;50.732;10.174;2022-12-07T08:14:26;97704.38;;;3.70;100.00
19884;BME280;10104;50.732;10.174;2022-12-07T08:16:48;97706.53;;;3.74;100.00
19884;BME280;10104;50.732;10.174;2022-12-07T08:19:10;97709.00;;;3.76;100.00
19884;BME280;10104;50.732;10.174;2022-12-07T08:21:31;97706.06;;;3.79;100.00
19884;BME280;10104;50.732;10.174;2022-12-07T08:23:53;97708.47;;;3.72;100.00
19884;BME280;10104;50.732;10.174;2022-12-07T08:26:16;97709.00;;;3.76;100.00
19884;BME280;10104;50.732;10.174;2022-12-07T08:28:38;97713.09;;;3.78;100.00
19884;BME280;10104;50.732;10.174;2022-12-07T08:31:05;97708.31;;;3.74;100.00
19884;BME280;10104;50.732;10.174;2022-12-07T08:33:27;97707.41;;;3.83;100.00
19884;BME280;10104;50.732;10.174;2022-12-07T08:35:49;97708.09;;;3.85;100.00
19884;BME280;10104;50.732;10.174;2022-12-07T08:38:10;97711.44;;;3.77;100.00
19884;BME280;10104;50.732;10.174;2022-12-07T08:40:32;97710.09;;;3.91;100.00
19884;BME280;10104;50.732;10.174;2022-12-07T08:42:53;97707.81;;;3.88;100.00
19884;BME280;10104;50.732;10.174;2022-12-07T08:45:16;97720.91;;;3.88;100.00
19884;BME280;10104;50.732;10.174;2022-12-07T08:47:55;97718.34;;;3.78;100.00
19884;BME280;10104;50.732;10.174;2022-12-07T08:50:19;97714.16;;;3.85;100.00
19884;BME280;10104;50.732;10.174;2022-12-07T08:52:41;97710.78;;;3.93;100.00
19884;BME280;10104;50.732;10.174;2022-12-07T08:55:04;97715.31;;;4.08;100.00
19884;BME280;10104;50.732;10.174;2022-12-07T08:57:27;97708.28;;;4.09;100.00
19884;BME280;10104;50.732;10.174;2022-12-07T08:59:49;97717.34;;;4.15;100.00
19884;BME280;10104;50.732;10.174;2022-12-07T09:02:10;97715.69;;;4.14;100.00
19884;BME280;10104;50.732;10.174;2022-12-07T09:04:32;97722.53;;;4.06;100.00
19884;BME280;10104;50.732;10.174;2022-12-07T09:06:54;97725.75;;;4.00;100.00
19884;BME280;10104;50.732;10.174;2022-12-07T09:09:16;97723.63;;;4.04;100.00
19884;BME280;10104;50.732;10.174;2022-12-07T09:11:38;97722.00;;;4.03;100.00
19884;BME280;10104;50.732;10.174;2022-12-07T09:14:00;97729.03;;;4.02;100.00
19884;BME280;10104;50.732;10.174;2022-12-07T09:16:22;97726.63;;;4.09;100.00
19884;BME280;10104;50.732;10.174;2022-12-07T09:18:43;97736.03;;;4.20;100.00
19884;BME280;10104;50.732;10.174;2022-12-07T09:21:05;97734.09;;;4.22;100.00
19884;BME280;10104;50.732;10.174;2022-12-07T09:23:26;97723.94;;;4.19;100.00
19884;BME280;10104;50.732;10.174;2022-12-07T09:25:48;97727.28;;;4.29;100.00
19884;BME280;10104;50.732;10.174;2022-12-07T09:28:09;97731.56;;;4.12;100.00
19884;BME280;10104;50.732;10.174;2022-12-07T09:30:31;97732.91;;;4.16;100.00
19884;BME280;10104;50.732;10.174;2022-12-07T09:33:13;97729.00;;;4.20;100.00
19884;BME280;10104;50.732;10.174;2022-12-07T09:35:34;97721.75;;;4.32;100.00
19884;BME280;10104;50.732;10.174;2022-12-07T09:37:56;97720.53;;;4.52;100.00
19884;BME280;10104;50.732;10.174;2022-12-07T09:40:19;97719.97;;;4.40;100.00
19884;BME280;10104;50.732;10.174;2022-12-07T09:42:44;97723.53;;;4.31;100.00
19884;BME280;10104;50.732;10.174;2022-12-07T09:45:14;97726.38;;;4.20;100.00
19884;BME280;10104;50.732;10.174;2022-12-07T09:47:36;97719.06;;;4.24;100.00
19884;BME280;10104;50.732;10.174;2022-12-07T09:50:04;97717.81;;;4.36;100.00
19884;BME280;10104;50.732;10.174;2022-12-07T09:52:28;97714.44;;;4.43;100.00
19884;BME280;10104;50.732;10.174;2022-12-07T09:54:58;97712.69;;;4.52;100.00
19884;BME280;10104;50.732;10.174;2022-12-07T09:57:29;97708.31;;;4.61;100.00
19884;BME280;10104;50.732;10.174;2022-12-07T09:59:51;97718.53;;;4.72;100.00
19884;BME280;10104;50.732;10.174;2022-12-07T10:02:26;97708.13;;;4.88;100.00
19884;BME280;10104;50.732;10.174;2022-12-07T10:04:50;97704.13;;;4.76;100.00
19884;BME280;10104;50.732;10.174;2022-12-07T10:07:12;97709.16;;;4.69;100.00
19884;BME280;10104;50.732;10.174;2022-12-07T10:09:33;97717.63;;;4.55;100.00
19884;BME280;10104;50.732;10.174;2022-12-07T10:12:05;97701.16;;;4.45;100.00
19884;BME280;10104;50.732;10.174;2022-12-07T10:14:30;97710.03;;;4.44;100.00
19884;BME280;10104;50.732;10.174;2022-12-07T10:17:36;97705.00;;;4.33;100.00
19884;BME280;10104;50.732;10.174;2022-12-07T10:20:14;97702.19;;;4.26;100.00
19884;BME280;10104;50.732;10.174;2022-12-07T10:22:36;97700.16;;;4.38;100.00
19884;BME280;10104;50.732;10.174;2022-12-07T10:25:08;97695.78;;;4.46;100.00
19884;BME280;10104;50.732;10.174;2022-12-07T10:27:31;97702.72;;;4.56;100.00
19884;BME280;10104;50.732;10.174;2022-12-07T10:29:53;97684.53;;;4.54;100.00
19884;BME280;10104;50.732;10.174;2022-12-07T10:34:37;97690.25;;;4.58;100.00
19884;BME280;10104;50.732;10.174;2022-12-07T10:37:21;97685.81;;;4.50;100.00
19884;BME280;10104;50.732;10.174;2022-12-07T10:42:20;97685.97;;;4.48;100.00
19884;BME280;10104;50.732;10.174;2022-12-07T10:44:42;97672.28;;;4.63;99.93
19884;BME280;10104;50.732;10.174;2022-12-07T10:55:22;97665.94;;;4.73;98.48
19884;BME280;10104;50.732;10.174;2022-12-07T11:00:25;97667.50;;;4.92;100.00
19884;BME280;10104;50.732;10.174;2022-12-07T11:11:42;97660.84;;;5.14;98.33
19884;BME280;10104;50.732;10.174;2022-12-07T11:14:20;97663.94;;;5.09;98.57
19884;BME280;10104;50.732;10.174;2022-12-07T11:16:56;97669.56;;;5.22;99.15
19884;BME280;10104;50.732;10.174;2022-12-07T11:22:09;97662.81;;;5.20;98.10
19884;BME280;10104;50.732;10.174;2022-12-07T11:28:27;97643.69;;;5.36;98.82
19884;BME280;10104;50.732;10.174;2022-12-07T11:31:12;97645.38;;;5.93;97.01
19884;BME280;10104;50.732;10.174;2022-12-07T11:33:43;97647.19;;;6.09;96.64
19884;BME280;10104;50.732;10.174;2022-12-07T11:38:51;97642.38;;;5.64;96.58
19884;BME280;10104;50.732;10.174;2022-12-07T11:41:20;97639.47;;;5.67;93.85
19884;BME280;10104;50.732;10.174;2022-12-07T11:43:58;97629.75;;;5.76;93.63
19884;BME280;10104;50.732;10.174;2022-12-07T11:46:26;97635.00;;;5.84;93.10
19884;BME280;10104;50.732;10.174;2022-12-07T11:49:03;97642.44;;;5.88;93.50
19884;BME280;10104;50.732;10.174;2022-12-07T11:51:33;97637.66;;;6.00;93.04
19884;BME280;10104;50.732;10.174;2022-12-07T11:54:10;97637.50;;;5.93;92.54
19884;BME280;10104;50.732;10.174;2022-12-07T11:56:34;97635.34;;;6.13;95.53
19884;BME280;10104;50.732;10.174;2022-12-07T11:59:22;97641.41;;;5.81;91.92
19884;BME280;10104;50.732;10.174;2022-12-07T12:04:19;97633.19;;;5.68;91.60
19884;BME280;10104;50.732;10.174;2022-12-07T12:06:45;97622.38;;;5.55;94.91
19884;BME280;10104;50.732;10.174;2022-12-07T12:09:17;97624.16;;;5.46;95.79
19884;BME280;10104;50.732;10.174;2022-12-07T12:20:31;97605.31;;;5.43;88.11
19884;BME280;10104;50.732;10.174;2022-12-07T12:23:10;97609.22;;;5.39;90.63
19884;BME280;10104;50.732;10.174;2022-12-07T12:25:49;97604.28;;;5.44;92.91
19884;BME280;10104;50.732;10.174;2022-12-07T12:28:25;97615.59;;;5.28;90.66
19884;BME280;10104;50.732;10.174;2022-12-07T12:31:14;97610.81;;;5.15;92.25
19884;BME280;10104;50.732;10.174;2022-12-07T12:33:38;97603.13;;;5.06;90.87
19884;BME280;10104;50.732;10.174;2022-12-07T12:43:56;97593.00;;;5.92;89.27
19884;BME280;10104;50.732;10.174;2022-12-07T12:49:13;97602.34;;;5.78;88.58
19884;BME280;10104;50.732;10.174;2022-12-07T12:51:38;97595.09;;;5.80;90.15
19884;BME280;10104;50.732;10.174;2022-12-07T12:54:08;97584.94;;;5.77;91.02
19884;BME280;10104;50.732;10.174;2022-12-07T12:56:55;97590.84;;;5.71;89.91
19884;BME280;10104;50.732;10.174;2022-12-07T13:01:43;97600.38;;;5.56;91.93
19884;BME280;10104;50.732;10.174;2022-12-07T13:04:21;97607.59;;;5.46;91.69
19884;BME280;10104;50.732;10.174;2022-12-07T13:06:45;97597.41;;;5.35;93.07
19884;BME280;10104;50.732;10.174;2022-12-07T13:09:19;97597.72;;;5.32;92.71
19884;BME280;10104;50.732;10.174;2022-12-07T13:11:44;97594.97;;;5.41;93.38
19884;BME280;10104;50.732;10.174;2022-12-07T13:17:02;97590.78;;;5.06;95.32
19884;BME280;10104;50.732;10.174;2022-12-07T13:19:53;97586.72;;;5.12;97.34
19884;BME280;10104;50.732;10.174;2022-12-07T13:24:56;97586.72;;;5.28;95.10
19884;BME280;10104;50.732;10.174;2022-12-07T13:27:18;97586.25;;;5.24;95.92
19884;BME280;10104;50.732;10.174;2022-12-07T13:29:42;97595.91;;;5.32;95.33
19884;BME280;10104;50.732;10.174;2022-12-07T13:32:04;97588.69;;;5.26;95.15
19884;BME280;10104;50.732;10.174;2022-12-07T13:34:32;97593.91;;;5.10;94.77
19884;BME280;10104;50.732;10.174;2022-12-07T13:36:54;97589.50;;;5.10;96.22
19884;BME280;10104;50.732;10.174;2022-12-07T13:39:21;97608.84;;;5.09;96.16
19884;BME280;10104;50.732;10.174;2022-12-07T13:41:44;97600.31;;;4.99;95.94
19884;BME280;10104;50.732;10.174;2022-12-07T13:44:11;97592.25;;;4.93;96.35
19884;BME280;10104;50.732;10.174;2022-12-07T13:49:38;97593.97;;;4.68;98.54
19884;BME280;10104;50.732;10.174;2022-12-07T13:52:16;97590.19;;;4.70;99.57
19884;BME280;10104;50.732;10.174;2022-12-07T13:54:47;97584.84;;;4.46;98.60
19884;BME280;10104;50.732;10.174;2022-12-07T13:57:10;97582.13;;;4.56;98.06
19884;BME280;10104;50.732;10.174;2022-12-07T13:59:32;97577.75;;;4.72;98.44
19884;BME280;10104;50.732;10.174;2022-12-07T14:01:54;97572.06;;;4.85;97.17
19884;BME280;10104;50.732;10.174;2022-12-07T14:04:34;97576.31;;;4.86;96.95